Time;durP1;ratioP1;P1;durP2;ratioP2;P2;SDS_P1;SDS_P2;PMS_P1;PMS_P2;Temp;Humidity;BMP_temperature;BMP_pressure;BME280_temperature;BME280_humidity;BME280_pressure;Samples;Min_cycle;Max_cycle;Signal;HPM_P1;HPM_P2
2024/03/03 00:01:42;;;;;;;101.25;55.45;;;;;;;;;;5053708;28;20027;-77
2024/03/03 00:04:10;;;;;;;93.43;52.35;;;;;;;;;;5052968;28;20029;-77
2024/03/03 00:06:37;;;;;;;101.72;53.42;;;;;;;;;;5063680;28;20033;-78
2024/03/03 00:09:05;;;;;;;98.15;53.47;;;;;;;;;;5051564;28;20067;-77
2024/03/03 00:11:31;;;;;;;101.65;56.95;;;;;;;;;;5053098;28;20382;-77
2024/03/03 00:13:57;;;;;;;98.22;56.00;;;;;;;;;;5053525;28;20037;-78
2024/03/03 00:16:23;;;;;;;101.47;55.33;;;;;;;;;;5052032;28;20012;-78
2024/03/03 00:18:49;;;;;;;93.43;52.15;;;;;;;;;;5053100;28;20021;-78
2024/03/03 00:21:15;;;;;;;98.88;52.75;;;;;;;;;;5053841;28;20091;-78
2024/03/03 00:23:41;;;;;;;94.80;50.35;;;;;;;;;;5051909;28;20025;-78
2024/03/03 00:26:08;;;;;;;91.57;49.63;;;;;;;;;;5053792;28;20025;-78
2024/03/03 00:28:34;;;;;;;92.70;48.88;;;;;;;;;;5053050;28;20036;-77
2024/03/03 00:31:00;;;;;;;97.10;50.72;;;;;;;;;;5053521;28;20044;-78
2024/03/03 00:33:26;;;;;;;90.47;45.83;;;;;;;;;;5051604;28;20040;-78
2024/03/03 00:35:52;;;;;;;90.68;49.33;;;;;;;;;;5051595;28;20558;-78
2024/03/03 00:38:18;;;;;;;92.03;47.95;;;;;;;;;;5052680;28;20029;-77
2024/03/03 00:40:44;;;;;;;93.05;48.15;;;;;;;;;;5052607;28;20070;-78
2024/03/03 00:43:10;;;;;;;89.55;46.97;;;;;;;;;;5052414;28;20041;-78
2024/03/03 00:45:36;;;;;;;99.97;53.53;;;;;;;;;;5052206;28;20033;-77
2024/03/03 00:48:03;;;;;;;98.25;52.75;;;;;;;;;;5060720;28;20024;-77
2024/03/03 00:50:29;;;;;;;92.13;47.50;;;;;;;;;;5070138;28;20035;-77
2024/03/03 00:52:55;;;;;;;85.55;49.65;;;;;;;;;;5068139;28;20482;-72
2024/03/03 00:55:22;;;;;;;91.28;48.20;;;;;;;;;;5065482;28;20556;-72
2024/03/03 00:57:48;;;;;;;97.15;51.15;;;;;;;;;;5053140;28;20070;-72
2024/03/03 01:00:14;;;;;;;90.22;47.58;;;;;;;;;;5059374;28;20017;-77
2024/03/03 01:02:40;;;;;;;80.18;47.38;;;;;;;;;;5058857;28;20024;-73
2024/03/03 01:05:08;;;;;;;93.35;48.30;;;;;;;;;;5058657;28;20390;-72
2024/03/03 01:07:34;;;;;;;91.00;49.60;;;;;;;;;;5072311;28;20021;-73
2024/03/03 01:10:00;;;;;;;98.32;53.03;;;;;;;;;;5070357;28;20104;-73
2024/03/03 01:12:26;;;;;;;88.50;47.92;;;;;;;;;;5067282;28;20482;-77
2024/03/03 01:14:52;;;;;;;90.60;48.45;;;;;;;;;;5068671;28;20063;-77
2024/03/03 01:17:19;;;;;;;90.65;48.42;;;;;;;;;;5070130;28;20024;-77
2024/03/03 01:19:45;;;;;;;83.15;48.40;;;;;;;;;;5068698;28;20025;-78
2024/03/03 01:22:11;;;;;;;86.50;47.38;;;;;;;;;;5064245;28;20032;-72
2024/03/03 01:24:38;;;;;;;83.50;48.40;;;;;;;;;;5068221;28;20033;-72
2024/03/03 01:27:04;;;;;;;88.30;48.80;;;;;;;;;;5072392;28;20055;-72
2024/03/03 01:29:30;;;;;;;89.20;45.83;;;;;;;;;;5069376;28;20025;-77
2024/03/03 01:31:56;;;;;;;90.90;47.28;;;;;;;;;;5053608;28;20108;-77
2024/03/03 01:34:23;;;;;;;92.22;50.53;;;;;;;;;;5053604;28;20124;-77
2024/03/03 01:36:49;;;;;;;82.63;46.47;;;;;;;;;;5054653;28;20013;-77
2024/03/03 01:39:15;;;;;;;83.68;46.50;;;;;;;;;;5056085;28;20017;-77
2024/03/03 01:41:45;;;;;;;81.85;46.67;;;;;;;;;;5055050;28;20390;-77
2024/03/03 01:44:11;;;;;;;92.47;49.00;;;;;;;;;;5059981;28;20049;-77
2024/03/03 01:46:38;;;;;;;93.38;48.17;;;;;;;;;;5058450;28;20025;-72
2024/03/03 01:49:04;;;;;;;90.63;48.22;;;;;;;;;;5054376;28;20033;-77
2024/03/03 01:51:30;;;;;;;84.53;47.38;;;;;;;;;;5054684;28;20372;-72
2024/03/03 01:53:56;;;;;;;81.85;45.90;;;;;;;;;;5056520;28;20029;-73
2024/03/03 01:56:24;;;;;;;90.07;48.35;;;;;;;;;;5066027;28;20021;-73
2024/03/03 01:58:51;;;;;;;82.78;46.95;;;;;;;;;;5060417;28;20017;-73
2024/03/03 02:01:19;;;;;;;82.30;45.53;;;;;;;;;;5066988;28;20039;-72
2024/03/03 02:03:45;;;;;;;77.93;45.35;;;;;;;;;;5062623;28;20017;-72
2024/03/03 02:06:11;;;;;;;88.78;47.42;;;;;;;;;;5057910;28;20052;-77
2024/03/03 02:08:38;;;;;;;89.93;47.83;;;;;;;;;;5061378;28;20021;-72
2024/03/03 02:11:04;;;;;;;78.57;45.30;;;;;;;;;;5059166;28;20025;-77
2024/03/03 02:13:30;;;;;;;88.95;47.47;;;;;;;;;;5058873;28;20064;-73
2024/03/03 02:15:56;;;;;;;83.63;46.92;;;;;;;;;;5059414;28;20021;-73
2024/03/03 02:18:22;;;;;;;88.35;48.53;;;;;;;;;;5057654;28;20029;-77
2024/03/03 02:20:48;;;;;;;86.75;48.28;;;;;;;;;;5070652;28;20041;-77
2024/03/03 02:23:14;;;;;;;93.10;48.65;;;;;;;;;;5074647;28;20048;-77
2024/03/03 02:25:41;;;;;;;88.22;47.78;;;;;;;;;;5073970;28;20051;-72
2024/03/03 02:28:07;;;;;;;84.47;48.35;;;;;;;;;;5063952;28;20471;-73
2024/03/03 02:30:33;;;;;;;85.97;48.15;;;;;;;;;;5060677;28;20025;-77
2024/03/03 02:32:59;;;;;;;81.07;46.42;;;;;;;;;;5063758;28;20032;-73
2024/03/03 02:35:25;;;;;;;81.85;46.60;;;;;;;;;;5067776;28;20010;-77
2024/03/03 02:37:51;;;;;;;95.40;46.53;;;;;;;;;;5061370;28;20032;-73
2024/03/03 02:40:17;;;;;;;83.85;49.10;;;;;;;;;;5060588;28;20025;-77
2024/03/03 02:42:43;;;;;;;84.28;45.70;;;;;;;;;;5065003;28;20049;-77
2024/03/03 02:45:09;;;;;;;80.13;43.38;;;;;;;;;;5059309;28;20041;-77
2024/03/03 02:47:35;;;;;;;81.13;46.15;;;;;;;;;;5057093;28;20017;-74
2024/03/03 02:50:03;;;;;;;84.85;45.65;;;;;;;;;;5057701;28;20047;-77
2024/03/03 02:52:29;;;;;;;83.97;45.42;;;;;;;;;;5074565;28;20023;-77
2024/03/03 02:54:55;;;;;;;85.07;47.58;;;;;;;;;;5071091;28;20033;-77
2024/03/03 02:57:21;;;;;;;88.78;45.47;;;;;;;;;;5060363;28;20024;-73
2024/03/03 02:59:48;;;;;;;85.72;46.03;;;;;;;;;;5056766;28;20055;-77
2024/03/03 03:02:14;;;;;;;84.00;46.78;;;;;;;;;;5057100;28;20417;-77
2024/03/03 03:04:40;;;;;;;87.32;46.33;;;;;;;;;;5057495;28;20036;-72
2024/03/03 03:07:07;;;;;;;88.82;49.13;;;;;;;;;;5066472;28;20100;-77
2024/03/03 03:09:33;;;;;;;96.78;47.38;;;;;;;;;;5064091;28;20040;-72
2024/03/03 03:11:59;;;;;;;86.55;45.42;;;;;;;;;;5062985;28;20103;-72
2024/03/03 03:14:25;;;;;;;77.40;43.03;;;;;;;;;;5071168;28;20032;-75
2024/03/03 03:16:51;;;;;;;82.22;42.10;;;;;;;;;;5072707;28;20024;-77
2024/03/03 03:19:17;;;;;;;81.60;43.67;;;;;;;;;;5057233;28;20025;-72
2024/03/03 03:21:43;;;;;;;80.47;45.60;;;;;;;;;;5059689;28;20359;-77
2024/03/03 03:24:09;;;;;;;82.70;43.92;;;;;;;;;;5055754;28;20516;-77
2024/03/03 03:26:35;;;;;;;81.55;42.75;;;;;;;;;;5055743;28;20363;-77
2024/03/03 03:29:04;;;;;;;78.78;42.55;;;;;;;;;;5054116;28;20074;-73
2024/03/03 03:31:30;;;;;;;84.40;44.10;;;;;;;;;;5056013;28;20035;-77
2024/03/03 03:33:56;;;;;;;80.97;44.47;;;;;;;;;;5058126;28;20382;-72
2024/03/03 03:36:22;;;;;;;83.25;44.70;;;;;;;;;;5057061;28;20024;-77
2024/03/03 03:38:48;;;;;;;79.15;43.67;;;;;;;;;;5056236;28;20544;-77
2024/03/03 03:41:15;;;;;;;84.13;42.45;;;;;;;;;;5052729;28;20044;-72
2024/03/03 03:43:41;;;;;;;76.13;44.10;;;;;;;;;;5055493;28;20049;-72
2024/03/03 03:46:07;;;;;;;81.55;43.72;;;;;;;;;;5054294;28;20029;-73
2024/03/03 03:48:34;;;;;;;87.10;43.72;;;;;;;;;;5057867;28;20044;-77
2024/03/03 03:51:00;;;;;;;75.25;41.38;;;;;;;;;;5053946;28;20035;-77
2024/03/03 03:53:26;;;;;;;72.82;41.20;;;;;;;;;;5058735;28;20052;-72
2024/03/03 03:55:52;;;;;;;78.00;42.67;;;;;;;;;;5055717;28;20021;-77
2024/03/03 03:58:18;;;;;;;77.53;41.05;;;;;;;;;;5056562;28;20028;-73
2024/03/03 04:00:44;;;;;;;80.35;42.03;;;;;;;;;;5060868;28;20403;-73
2024/03/03 04:03:10;;;;;;;77.30;42.72;;;;;;;;;;5053183;28;20478;-78
2024/03/03 04:05:36;;;;;;;71.38;42.28;;;;;;;;;;5054831;28;20041;-77
2024/03/03 04:08:02;;;;;;;80.40;41.03;;;;;;;;;;5057615;28;20100;-72
2024/03/03 04:10:28;;;;;;;77.32;42.08;;;;;;;;;;5055781;28;20060;-77
2024/03/03 04:12:55;;;;;;;68.75;38.05;;;;;;;;;;5057973;28;20016;-77
2024/03/03 04:15:22;;;;;;;72.35;39.42;;;;;;;;;;5057708;28;20013;-77
2024/03/03 04:17:48;;;;;;;68.47;36.53;;;;;;;;;;5057389;28;20017;-77
2024/03/03 04:20:14;;;;;;;69.45;39.92;;;;;;;;;;5056088;28;20025;-78
2024/03/03 04:22:41;;;;;;;72.10;39.40;;;;;;;;;;5059953;28;20017;-77
2024/03/03 04:25:07;;;;;;;73.53;40.38;;;;;;;;;;5062626;28;20025;-72
2024/03/03 04:27:33;;;;;;;72.63;36.85;;;;;;;;;;5059308;28;20043;-72
2024/03/03 04:29:59;;;;;;;78.88;42.25;;;;;;;;;;5071025;28;20021;-77
2024/03/03 04:32:25;;;;;;;71.70;38.30;;;;;;;;;;5066844;28;20058;-77
2024/03/03 04:34:51;;;;;;;74.47;39.22;;;;;;;;;;5068450;28;20027;-72
2024/03/03 04:37:17;;;;;;;70.78;38.28;;;;;;;;;;5056393;28;20028;-77
2024/03/03 04:39:44;;;;;;;73.60;38.67;;;;;;;;;;5055601;28;20037;-72
2024/03/03 04:42:10;;;;;;;71.88;37.53;;;;;;;;;;5066385;28;20056;-72
2024/03/03 04:44:36;;;;;;;69.53;36.80;;;;;;;;;;5068779;28;20036;-77
2024/03/03 04:47:02;;;;;;;67.20;37.42;;;;;;;;;;5055773;28;20033;-73
2024/03/03 04:49:28;;;;;;;63.10;33.63;;;;;;;;;;5052871;28;20505;-77
2024/03/03 04:51:54;;;;;;;65.53;34.83;;;;;;;;;;5063582;28;20032;-76
2024/03/03 04:54:21;;;;;;;69.78;37.63;;;;;;;;;;5068312;28;20039;-77
2024/03/03 04:56:47;;;;;;;62.00;33.75;;;;;;;;;;5066443;28;20043;-77
2024/03/03 04:59:13;;;;;;;69.53;36.70;;;;;;;;;;5068467;28;20021;-77
2024/03/03 05:01:42;;;;;;;59.58;33.60;;;;;;;;;;5067203;28;20055;-72
2024/03/03 05:04:09;;;;;;;59.47;34.13;;;;;;;;;;5060628;28;20087;-72
2024/03/03 05:06:42;;;;;;;61.92;34.25;;;;;;;;;;5054113;28;20044;-73
2024/03/03 05:09:09;;;;;;;69.55;34.85;;;;;;;;;;5055777;28;20032;-72
2024/03/03 05:11:36;;;;;;;61.13;33.60;;;;;;;;;;5054404;28;20021;-73
2024/03/03 05:14:02;;;;;;;58.72;31.55;;;;;;;;;;5054495;28;20026;-76
2024/03/03 05:16:28;;;;;;;58.53;34.00;;;;;;;;;;5055930;28;20025;-72
2024/03/03 05:18:54;;;;;;;56.85;32.20;;;;;;;;;;5057110;28;20021;-73
2024/03/03 05:21:20;;;;;;;65.20;32.70;;;;;;;;;;5069076;28;20029;-73
2024/03/03 05:23:46;;;;;;;56.65;31.50;;;;;;;;;;5069959;28;20036;-73
2024/03/03 05:26:18;;;;;;;61.55;32.05;;;;;;;;;;5054864;28;20090;-77
2024/03/03 05:28:49;;;;;;;54.25;29.63;;;;;;;;;;5065636;28;20029;-77
2024/03/03 05:31:15;;;;;;;53.65;29.38;;;;;;;;;;5070127;28;20115;-73
2024/03/03 05:33:41;;;;;;;48.42;28.80;;;;;;;;;;5055231;28;20029;-72
2024/03/03 05:36:07;;;;;;;52.33;30.25;;;;;;;;;;5059832;28;20048;-77
2024/03/03 05:38:33;;;;;;;54.53;28.48;;;;;;;;;;5055997;28;20082;-72
2024/03/03 05:40:59;;;;;;;51.03;27.83;;;;;;;;;;5040291;28;20025;-77
2024/03/03 05:43:25;;;;;;;54.20;28.90;;;;;;;;;;5062402;28;20047;-77
2024/03/03 05:45:51;;;;;;;52.35;29.60;;;;;;;;;;5066490;28;20028;-77
2024/03/03 05:48:17;;;;;;;50.10;27.77;;;;;;;;;;5068070;28;20026;-77
2024/03/03 05:50:43;;;;;;;51.95;30.38;;;;;;;;;;5067478;28;20017;-72
2024/03/03 05:53:09;;;;;;;48.78;27.15;;;;;;;;;;5068492;28;20034;-77
2024/03/03 05:55:36;;;;;;;46.67;25.10;;;;;;;;;;5066660;28;20020;-77
2024/03/03 05:58:02;;;;;;;48.70;26.23;;;;;;;;;;5068801;28;20091;-77
2024/03/03 06:00:28;;;;;;;41.28;24.27;;;;;;;;;;5067342;28;20426;-78
2024/03/03 06:02:54;;;;;;;46.33;25.73;;;;;;;;;;5068981;28;20417;-77
2024/03/03 06:05:20;;;;;;;46.22;25.90;;;;;;;;;;5072173;28;20036;-78
2024/03/03 06:07:46;;;;;;;48.13;24.52;;;;;;;;;;5072232;28;20013;-72
2024/03/03 06:10:12;;;;;;;53.22;26.10;;;;;;;;;;5055995;28;20059;-72
2024/03/03 06:12:38;;;;;;;38.60;23.80;;;;;;;;;;5058725;28;20048;-73
2024/03/03 06:15:05;;;;;;;47.58;26.52;;;;;;;;;;5055786;28;20021;-77
2024/03/03 06:17:31;;;;;;;49.72;27.48;;;;;;;;;;5064922;28;20024;-77
2024/03/03 06:19:57;;;;;;;54.10;27.60;;;;;;;;;;5061988;28;20021;-77
2024/03/03 06:22:23;;;;;;;45.13;25.75;;;;;;;;;;5056698;28;20036;-78
2024/03/03 06:24:49;;;;;;;47.58;25.80;;;;;;;;;;5041524;28;20042;-78
2024/03/03 06:27:15;;;;;;;48.55;27.80;;;;;;;;;;5061792;28;20475;-78
2024/03/03 06:29:41;;;;;;;46.55;27.00;;;;;;;;;;5066315;28;20567;-78
2024/03/03 06:32:08;;;;;;;46.72;26.63;;;;;;;;;;5057102;28;20021;-77
2024/03/03 06:34:34;;;;;;;49.70;26.80;;;;;;;;;;5057046;28;20123;-77
2024/03/03 06:37:01;;;;;;;43.42;26.67;;;;;;;;;;5045141;28;20021;-77
2024/03/03 06:39:27;;;;;;;47.10;26.05;;;;;;;;;;5056665;28;20021;-77
2024/03/03 06:41:53;;;;;;;51.55;28.77;;;;;;;;;;5060311;28;20031;-78
2024/03/03 06:44:19;;;;;;;48.10;27.38;;;;;;;;;;5062697;28;20540;-78
2024/03/03 06:46:45;;;;;;;47.55;29.73;;;;;;;;;;5071459;28;20028;-77
2024/03/03 06:49:11;;;;;;;45.40;27.17;;;;;;;;;;5064305;28;20021;-77
2024/03/03 06:51:38;;;;;;;43.80;28.77;;;;;;;;;;5059259;28;20028;-73
2024/03/03 06:54:06;;;;;;;45.50;27.63;;;;;;;;;;5056763;28;20032;-77
2024/03/03 06:56:32;;;;;;;49.10;28.75;;;;;;;;;;5053815;28;20081;-72
2024/03/03 06:59:00;;;;;;;51.13;27.38;;;;;;;;;;5052535;28;20020;-77
2024/03/03 07:01:26;;;;;;;48.58;28.95;;;;;;;;;;5049143;28;20644;-77
2024/03/03 07:04:09;;;;;;;50.10;28.83;;;;;;;;;;5058319;28;20017;-78
2024/03/03 07:06:36;;;;;;;50.28;27.42;;;;;;;;;;5046722;28;20036;-78
2024/03/03 07:09:04;;;;;;;50.80;27.13;;;;;;;;;;5058469;28;20015;-77
2024/03/03 07:11:30;;;;;;;47.60;26.02;;;;;;;;;;5056240;28;20032;-79
2024/03/03 07:13:56;;;;;;;46.25;26.38;;;;;;;;;;5065106;28;20108;-79
2024/03/03 07:16:22;;;;;;;48.45;26.98;;;;;;;;;;5063595;28;20029;-78
2024/03/03 07:18:49;;;;;;;47.25;26.52;;;;;;;;;;5066785;28;20025;-78
2024/03/03 07:21:15;;;;;;;41.97;25.30;;;;;;;;;;5063850;28;20386;-80
2024/03/03 07:23:41;;;;;;;39.33;22.50;;;;;;;;;;5067113;28;20052;-78
2024/03/03 07:26:07;;;;;;;36.85;22.23;;;;;;;;;;5061975;28;20507;-80
2024/03/03 07:28:33;;;;;;;37.17;22.33;;;;;;;;;;5070552;28;20024;-79
2024/03/03 07:30:59;;;;;;;32.85;20.52;;;;;;;;;;5071545;28;20380;-79
2024/03/03 07:33:25;;;;;;;37.08;21.00;;;;;;;;;;5070778;28;20414;-80
2024/03/03 07:35:51;;;;;;;34.40;21.88;;;;;;;;;;5072857;28;20020;-80
2024/03/03 07:38:18;;;;;;;30.33;19.75;;;;;;;;;;5071609;28;20103;-80
2024/03/03 07:40:44;;;;;;;33.40;20.08;;;;;;;;;;5056083;28;20016;-80
2024/03/03 07:43:14;;;;;;;27.85;18.55;;;;;;;;;;5051489;28;20081;-80
2024/03/03 07:45:41;;;;;;;35.30;19.63;;;;;;;;;;5051187;28;20516;-79
2024/03/03 07:48:07;;;;;;;33.35;19.90;;;;;;;;;;5060022;28;20539;-80
2024/03/03 07:50:34;;;;;;;31.70;18.80;;;;;;;;;;5070740;28;20394;-81
2024/03/03 07:53:00;;;;;;;31.75;20.05;;;;;;;;;;5064757;28;20044;-81
2024/03/03 07:55:26;;;;;;;31.02;19.77;;;;;;;;;;5056092;28;20394;-82
2024/03/03 07:57:52;;;;;;;27.67;18.52;;;;;;;;;;5054086;28;20039;-81
2024/03/03 08:00:18;;;;;;;27.40;17.48;;;;;;;;;;5042819;28;20032;-80
2024/03/03 08:02:44;;;;;;;36.53;17.92;;;;;;;;;;5054505;28;20021;-80
2024/03/03 08:05:10;;;;;;;31.20;18.98;;;;;;;;;;5035476;28;20052;-81
2024/03/03 08:07:36;;;;;;;35.13;20.80;;;;;;;;;;5047459;28;20021;-81
2024/03/03 08:10:03;;;;;;;33.15;20.02;;;;;;;;;;5053980;28;20027;-81
2024/03/03 08:12:29;;;;;;;34.20;20.50;;;;;;;;;;5050150;28;20112;-80
2024/03/03 08:14:55;;;;;;;30.58;20.15;;;;;;;;;;5032265;28;20486;-79
2024/03/03 08:17:21;;;;;;;38.97;22.20;;;;;;;;;;5041934;28;20039;-79
2024/03/03 08:19:48;;;;;;;33.95;19.55;;;;;;;;;;5045002;28;20049;-80
2024/03/03 08:22:14;;;;;;;33.22;20.85;;;;;;;;;;5042806;28;20119;-80
2024/03/03 08:24:41;;;;;;;34.65;19.02;;;;;;;;;;5072175;28;20549;-80
2024/03/03 08:27:07;;;;;;;32.10;19.33;;;;;;;;;;5064460;28;20025;-80
2024/03/03 08:29:33;;;;;;;31.55;18.13;;;;;;;;;;5072119;28;20025;-80
2024/03/03 08:31:59;;;;;;;26.45;16.35;;;;;;;;;;5065490;28;20021;-80
2024/03/03 08:34:25;;;;;;;26.90;16.33;;;;;;;;;;5059726;28;20037;-79
2024/03/03 08:36:51;;;;;;;23.48;15.45;;;;;;;;;;5051146;28;20021;-79
2024/03/03 08:39:19;;;;;;;21.67;13.88;;;;;;;;;;5051825;28;20021;-80
2024/03/03 08:41:45;;;;;;;24.52;14.45;;;;;;;;;;5057743;28;20620;-79
2024/03/03 08:44:12;;;;;;;25.73;14.88;;;;;;;;;;5051922;28;20076;-79
2024/03/03 08:46:38;;;;;;;20.90;13.52;;;;;;;;;;5046171;28;20033;-79
2024/03/03 08:49:05;;;;;;;18.13;12.73;;;;;;;;;;5057326;28;20148;-78
2024/03/03 08:51:31;;;;;;;18.33;12.38;;;;;;;;;;5054344;28;20112;-78
2024/03/03 08:53:58;;;;;;;16.80;11.15;;;;;;;;;;5059252;28;20029;-80
2024/03/03 08:56:24;;;;;;;20.67;11.45;;;;;;;;;;5054040;28;20029;-78
2024/03/03 08:58:50;;;;;;;16.70;11.45;;;;;;;;;;5057637;28;20024;-79
2024/03/03 09:01:16;;;;;;;13.13;9.55;;;;;;;;;;5067097;28;20016;-79
2024/03/03 09:03:42;;;;;;;16.85;10.75;;;;;;;;;;5062333;28;20112;-79
2024/03/03 09:06:08;;;;;;;15.80;10.82;;;;;;;;;;5069624;28;20060;-79
2024/03/03 09:08:37;;;;;;;16.65;9.73;;;;;;;;;;5063019;28;20028;-79
2024/03/03 09:11:06;;;;;;;12.02;7.93;;;;;;;;;;5064352;28;20029;-79
2024/03/03 09:13:32;;;;;;;12.80;8.60;;;;;;;;;;5063426;28;20085;-80
2024/03/03 09:15:58;;;;;;;13.93;9.27;;;;;;;;;;5065577;28;20450;-80
2024/03/03 09:18:24;;;;;;;14.05;8.38;;;;;;;;;;5066023;28;20033;-79
2024/03/03 09:20:50;;;;;;;14.65;8.35;;;;;;;;;;5063838;28;20043;-79
2024/03/03 09:23:16;;;;;;;11.70;8.05;;;;;;;;;;5067867;28;20028;-79
2024/03/03 09:25:42;;;;;;;14.30;8.70;;;;;;;;;;5066714;28;20035;-79
2024/03/03 09:28:08;;;;;;;12.73;8.30;;;;;;;;;;5061373;28;20494;-80
2024/03/03 09:30:34;;;;;;;12.50;7.35;;;;;;;;;;5059401;28;20020;-80
2024/03/03 09:33:01;;;;;;;11.32;7.60;;;;;;;;;;5040043;28;20088;-80
2024/03/03 09:35:28;;;;;;;9.95;7.00;;;;;;;;;;5054198;28;20044;-80
2024/03/03 09:37:54;;;;;;;8.75;5.57;;;;;;;;;;5044886;28;20021;-80
2024/03/03 09:40:22;;;;;;;6.85;5.55;;;;;;;;;;5058204;28;20406;-79
2024/03/03 09:42:49;;;;;;;7.75;5.97;;;;;;;;;;5046656;28;20103;-80
2024/03/03 09:45:19;;;;;;;8.43;4.65;;;;;;;;;;5051328;28;20509;-79
2024/03/03 09:47:46;;;;;;;8.18;5.07;;;;;;;;;;5056041;28;20029;-80
2024/03/03 09:50:14;;;;;;;11.32;5.07;;;;;;;;;;5056765;28;20104;-79
2024/03/03 09:52:43;;;;;;;7.70;4.93;;;;;;;;;;5055662;28;20497;-78
2024/03/03 09:55:12;;;;;;;4.72;3.85;;;;;;;;;;5054678;28;20104;-78
2024/03/03 09:57:39;;;;;;;6.30;4.57;;;;;;;;;;5055443;28;20055;-80
2024/03/03 10:00:06;;;;;;;5.72;4.88;;;;;;;;;;5055774;28;20378;-76
2024/03/03 10:02:33;;;;;;;7.95;5.65;;;;;;;;;;5056152;28;20029;-79
2024/03/03 10:05:01;;;;;;;7.40;5.18;;;;;;;;;;5055169;28;20033;-79
2024/03/03 10:07:29;;;;;;;8.90;6.10;;;;;;;;;;5054862;28;20482;-79
2024/03/03 10:10:05;;;;;;;9.35;6.32;;;;;;;;;;5054652;28;20021;-81
2024/03/03 10:12:32;;;;;;;6.90;5.07;;;;;;;;;;5055479;28;20036;-80
2024/03/03 10:14:58;;;;;;;7.38;5.32;;;;;;;;;;5061271;28;20017;-79
2024/03/03 10:17:25;;;;;;;8.60;5.70;;;;;;;;;;5063581;28;20171;-80
2024/03/03 10:19:51;;;;;;;6.93;4.82;;;;;;;;;;5051891;28;20036;-80
2024/03/03 10:22:21;;;;;;;8.50;4.70;;;;;;;;;;5062474;28;20043;-80
2024/03/03 10:24:47;;;;;;;9.18;5.78;;;;;;;;;;5069098;28;20032;-81
2024/03/03 10:27:17;;;;;;;8.77;6.28;;;;;;;;;;5052645;28;20110;-80
2024/03/03 10:29:44;;;;;;;7.95;5.40;;;;;;;;;;5037062;28;20029;-79
2024/03/03 10:32:11;;;;;;;6.38;5.28;;;;;;;;;;5039137;28;20025;-80
2024/03/03 10:34:37;;;;;;;8.77;5.85;;;;;;;;;;5058767;28;20031;-80
2024/03/03 10:37:04;;;;;;;8.57;6.05;;;;;;;;;;5047381;28;20040;-79
2024/03/03 10:39:38;;;;;;;7.70;5.50;;;;;;;;;;5054469;28;20375;-74
2024/03/03 10:42:08;;;;;;;6.25;4.68;;;;;;;;;;5052533;28;20029;-79
2024/03/03 10:44:34;;;;;;;7.65;5.28;;;;;;;;;;5059733;28;20041;-74
2024/03/03 10:47:00;;;;;;;7.88;4.75;;;;;;;;;;5061696;28;20637;-74
2024/03/03 10:49:27;;;;;;;5.78;4.78;;;;;;;;;;5061145;28;20039;-80
2024/03/03 10:51:57;;;;;;;8.95;5.57;;;;;;;;;;5062748;28;20017;-80
2024/03/03 10:54:23;;;;;;;8.18;5.25;;;;;;;;;;5059946;28;20057;-74
2024/03/03 10:56:49;;;;;;;8.20;5.97;;;;;;;;;;5064811;28;20549;-74
2024/03/03 10:59:16;;;;;;;10.60;5.20;;;;;;;;;;5056106;28;20028;-80
2024/03/03 11:01:42;;;;;;;6.38;4.65;;;;;;;;;;5058104;28;20017;-80
2024/03/03 11:04:10;;;;;;;5.07;4.07;;;;;;;;;;5062994;28;20474;-74
2024/03/03 11:06:38;;;;;;;7.03;5.07;;;;;;;;;;5059032;28;20019;-74
2024/03/03 11:09:04;;;;;;;8.05;5.38;;;;;;;;;;5057892;28;20060;-74
2024/03/03 11:11:32;;;;;;;6.57;5.18;;;;;;;;;;5064501;28;20053;-74
2024/03/03 11:14:11;;;;;;;8.30;5.03;;;;;;;;;;5057543;28;20021;-74
2024/03/03 11:16:37;;;;;;;8.13;5.00;;;;;;;;;;5049842;28;20021;-74
2024/03/03 11:19:05;;;;;;;7.22;5.60;;;;;;;;;;5057185;28;20031;-74
2024/03/03 11:21:36;;;;;;;9.13;5.70;;;;;;;;;;5054543;28;20104;-74
2024/03/03 11:24:06;;;;;;;6.85;5.07;;;;;;;;;;5058138;28;20482;-80
2024/03/03 11:26:46;;;;;;;5.50;4.68;;;;;;;;;;5064434;28;20380;-74
2024/03/03 11:29:13;;;;;;;6.22;4.85;;;;;;;;;;5066004;28;20021;-74
2024/03/03 11:31:40;;;;;;;6.85;4.50;;;;;;;;;;5069326;28;20020;-74
2024/03/03 11:34:07;;;;;;;8.70;4.40;;;;;;;;;;5054487;28;20017;-74
2024/03/03 11:36:33;;;;;;;6.82;4.88;;;;;;;;;;5054738;28;20025;-74
2024/03/03 11:39:09;;;;;;;7.20;5.43;;;;;;;;;;5053987;28;20017;-74
2024/03/03 11:41:38;;;;;;;5.18;4.55;;;;;;;;;;5054145;28;20056;-80
2024/03/03 11:44:05;;;;;;;7.22;4.53;;;;;;;;;;5057702;28;20052;-74
2024/03/03 11:47:04;;;;;;;5.47;4.38;;;;;;;;;;5058355;28;20025;-74
2024/03/03 11:49:41;;;;;;;5.45;4.68;;;;;;;;;;5028010;28;20044;-74
2024/03/03 11:52:07;;;;;;;5.82;4.63;;;;;;;;;;5055884;28;20158;-74
2024/03/03 11:54:36;;;;;;;5.15;3.80;;;;;;;;;;5063373;28;20468;-74
2024/03/03 11:57:04;;;;;;;5.38;4.35;;;;;;;;;;5066199;28;20013;-74
2024/03/03 11:59:48;;;;;;;7.55;4.57;;;;;;;;;;5068992;28;20016;-73
2024/03/03 12:02:17;;;;;;;6.28;4.45;;;;;;;;;;5060814;28;20044;-74
2024/03/03 12:04:44;;;;;;;5.22;4.32;;;;;;;;;;5058693;28;20183;-74
2024/03/03 12:07:11;;;;;;;6.68;4.43;;;;;;;;;;5056863;28;20021;-74
2024/03/03 12:09:41;;;;;;;6.82;4.65;;;;;;;;;;5054105;28;20075;-80
2024/03/03 12:12:08;;;;;;;6.68;5.28;;;;;;;;;;5054936;28;20123;-80
2024/03/03 12:14:34;;;;;;;5.78;4.43;;;;;;;;;;5056369;28;20078;-80
2024/03/03 12:17:00;;;;;;;7.72;4.63;;;;;;;;;;5057997;28;20021;-74
2024/03/03 12:19:26;;;;;;;7.03;5.00;;;;;;;;;;5061011;28;20025;-80
2024/03/03 12:21:52;;;;;;;6.68;4.85;;;;;;;;;;5059294;28;20035;-80
2024/03/03 12:24:18;;;;;;;7.07;5.35;;;;;;;;;;5063276;28;20422;-81
2024/03/03 12:26:44;;;;;;;10.10;5.80;;;;;;;;;;5066246;28;20022;-81
2024/03/03 12:29:10;;;;;;;7.10;5.05;;;;;;;;;;5060661;28;20390;-81
2024/03/03 12:31:36;;;;;;;7.00;4.70;;;;;;;;;;5053163;28;20444;-80
2024/03/03 12:34:04;;;;;;;7.53;5.22;;;;;;;;;;5061030;28;20024;-75
2024/03/03 12:36:30;;;;;;;5.45;4.57;;;;;;;;;;5059547;28;20024;-81
2024/03/03 12:38:56;;;;;;;7.80;5.68;;;;;;;;;;5060775;28;20155;-81
2024/03/03 12:41:22;;;;;;;8.98;5.22;;;;;;;;;;5064199;28;20035;-81
2024/03/03 12:43:53;;;;;;;7.63;5.25;;;;;;;;;;5067457;28;20067;-80
2024/03/03 12:46:20;;;;;;;11.63;7.35;;;;;;;;;;5055936;28;20142;-76
2024/03/03 12:48:46;;;;;;;9.10;6.75;;;;;;;;;;5057924;28;20025;-75
2024/03/03 12:51:13;;;;;;;12.13;7.65;;;;;;;;;;5052987;28;20025;-75
2024/03/03 12:53:39;;;;;;;10.27;7.80;;;;;;;;;;5069318;28;20044;-81
2024/03/03 12:56:22;;;;;;;11.80;9.05;;;;;;;;;;5070047;28;20501;-80
2024/03/03 12:58:48;;;;;;;11.90;8.00;;;;;;;;;;5046916;28;20078;-75
2024/03/03 13:01:15;;;;;;;10.75;7.82;;;;;;;;;;5068988;28;20032;-81
2024/03/03 13:03:46;;;;;;;11.82;7.72;;;;;;;;;;5052867;28;20906;-75
2024/03/03 13:06:15;;;;;;;18.27;9.88;;;;;;;;;;5064685;28;20041;-81
2024/03/03 13:08:41;;;;;;;12.25;8.02;;;;;;;;;;5052316;28;20111;-81
2024/03/03 13:11:11;;;;;;;14.43;9.25;;;;;;;;;;5069768;28;20023;-81
2024/03/03 13:13:40;;;;;;;11.75;7.43;;;;;;;;;;5061942;28;20363;-75
2024/03/03 13:16:08;;;;;;;11.43;8.13;;;;;;;;;;5060304;28;20486;-75
2024/03/03 13:18:35;;;;;;;12.05;8.90;;;;;;;;;;5058444;28;20031;-75
2024/03/03 13:21:10;;;;;;;13.25;9.05;;;;;;;;;;5060772;28;20443;-81
2024/03/03 13:23:36;;;;;;;12.88;8.80;;;;;;;;;;5045352;28;20021;-81
2024/03/03 13:26:03;;;;;;;15.75;9.93;;;;;;;;;;5057473;28;20442;-81
2024/03/03 13:28:29;;;;;;;17.77;9.38;;;;;;;;;;5057186;28;20031;-75
2024/03/03 13:30:58;;;;;;;9.82;7.38;;;;;;;;;;5058740;28;20059;-81
2024/03/03 13:33:25;;;;;;;12.05;7.25;;;;;;;;;;5055056;28;20028;-81
2024/03/03 13:35:51;;;;;;;10.75;7.82;;;;;;;;;;5059390;28;20027;-75
2024/03/03 13:38:18;;;;;;;12.52;8.00;;;;;;;;;;5054872;28;20119;-76
2024/03/03 13:40:44;;;;;;;12.43;9.23;;;;;;;;;;5062183;28;20028;-76
2024/03/03 13:43:10;;;;;;;13.40;9.07;;;;;;;;;;5074024;28;20052;-80
2024/03/03 13:45:49;;;;;;;13.75;8.93;;;;;;;;;;5055418;28;20079;-81
2024/03/03 13:48:16;;;;;;;12.43;8.13;;;;;;;;;;5053756;28;20032;-81
2024/03/03 13:50:42;;;;;;;13.10;8.07;;;;;;;;;;5056160;28;20422;-81
2024/03/03 13:53:09;;;;;;;13.27;8.77;;;;;;;;;;5057734;28;20032;-81
2024/03/03 13:55:35;;;;;;;12.80;8.15;;;;;;;;;;5055050;28;20509;-75
2024/03/03 13:58:01;;;;;;;14.70;8.55;;;;;;;;;;5063770;28;20021;-75
2024/03/03 14:00:30;;;;;;;13.57;9.75;;;;;;;;;;5069674;28;20059;-81
2024/03/03 14:02:57;;;;;;;13.90;9.25;;;;;;;;;;5061003;28;20279;-81
2024/03/03 14:05:23;;;;;;;13.10;8.55;;;;;;;;;;5058877;28;20118;-75
2024/03/03 14:07:50;;;;;;;12.80;9.65;;;;;;;;;;5062097;28;20027;-81
2024/03/03 14:10:16;;;;;;;13.70;9.13;;;;;;;;;;5059468;28;20021;-81
2024/03/03 14:12:42;;;;;;;14.30;9.40;;;;;;;;;;5058282;28;20028;-81
2024/03/03 14:15:09;;;;;;;14.10;8.73;;;;;;;;;;5054121;28;20495;-80
2024/03/03 14:17:35;;;;;;;13.50;9.73;;;;;;;;;;5054828;28;20087;-80
2024/03/03 14:20:02;;;;;;;12.23;8.52;;;;;;;;;;5067863;28;20028;-80
2024/03/03 14:22:29;;;;;;;13.90;8.90;;;;;;;;;;5060868;28;20525;-81